sensor_id;sensor_type;location;lat;lon;timestamp;pressure;altitude;pressure_sealevel;temperature;humidity
10700;BME280;5401;41.986;21.452;2023-03-04T00:01:06;98471.25;;;9.63;79.69
10700;BME280;5401;41.986;21.452;2023-03-04T00:03:33;98451.06;;;9.55;79.21
10700;BME280;5401;41.986;21.452;2023-03-04T00:06:02;98465.28;;;9.61;79.30
10700;BME280;5401;41.986;21.452;2023-03-04T00:08:31;98465.47;;;9.60;79.13
10700;BME280;5401;41.986;21.452;2023-03-04T00:10:59;98463.41;;;9.62;79.61
10700;BME280;5401;41.986;21.452;2023-03-04T00:13:26;98459.72;;;9.63;79.31
10700;BME280;5401;41.986;21.452;2023-03-04T00:15:54;98451.06;;;9.55;79.59
10700;BME280;5401;41.986;21.452;2023-03-04T00:18:21;98460.13;;;9.54;79.32
10700;BME280;5401;41.986;21.452;2023-03-04T00:20:49;98459.28;;;9.47;79.10
10700;BME280;5401;41.986;21.452;2023-03-04T00:23:16;98448.81;;;9.45;79.87
10700;BME280;5401;41.986;21.452;2023-03-04T00:25:45;98457.03;;;9.50;78.85
10700;BME280;5401;41.986;21.452;2023-03-04T00:28:13;98428.19;;;9.33;79.51
10700;BME280;5401;41.986;21.452;2023-03-04T00:30:40;98446.72;;;9.41;78.94
10700;BME280;5401;41.986;21.452;2023-03-04T00:33:08;98453.09;;;9.40;79.53
10700;BME280;5401;41.986;21.452;2023-03-04T00:35:35;98460.94;;;9.41;78.92
10700;BME280;5401;41.986;21.452;2023-03-04T00:38:03;98447.53;;;9.35;79.71
10700;BME280;5401;41.986;21.452;2023-03-04T00:40:30;98458.03;;;9.36;78.78
10700;BME280;5401;41.986;21.452;2023-03-04T00:43:00;98454.53;;;9.36;79.96
10700;BME280;5401;41.986;21.452;2023-03-04T00:45:27;98439.31;;;9.30;80.13
10700;BME280;5401;41.986;21.452;2023-03-04T00:47:55;98441.38;;;9.34;79.04
10700;BME280;5401;41.986;21.452;2023-03-04T00:50:23;98439.31;;;9.30;79.61
10700;BME280;5401;41.986;21.452;2023-03-04T00:52:50;98448.94;;;9.31;79.09
10700;BME280;5401;41.986;21.452;2023-03-04T00:55:18;98439.09;;;9.25;79.22
10700;BME280;5401;41.986;21.452;2023-03-04T00:57:45;98448.31;;;9.23;79.89
10700;BME280;5401;41.986;21.452;2023-03-04T01:00:15;98451.59;;;9.18;79.58
10700;BME280;5401;41.986;21.452;2023-03-04T01:02:43;98436.56;;;9.11;79.35
10700;BME280;5401;41.986;21.452;2023-03-04T01:05:11;98437.63;;;9.10;79.44
10700;BME280;5401;41.986;21.452;2023-03-04T01:07:38;98437.00;;;9.08;79.54
10700;BME280;5401;41.986;21.452;2023-03-04T01:10:08;98423.03;;;9.12;80.05
10700;BME280;5401;41.986;21.452;2023-03-04T01:12:36;98419.75;;;9.10;79.95
10700;BME280;5401;41.986;21.452;2023-03-04T01:15:06;98428.78;;;9.09;79.75
10700;BME280;5401;41.986;21.452;2023-03-04T01:17:35;98423.84;;;9.06;80.35
10700;BME280;5401;41.986;21.452;2023-03-04T01:20:04;98412.75;;;9.03;80.03
10700;BME280;5401;41.986;21.452;2023-03-04T01:22:48;98401.63;;;8.93;79.08
10700;BME280;5401;41.986;21.452;2023-03-04T01:25:16;98401.81;;;8.91;80.23
10700;BME280;5401;41.986;21.452;2023-03-04T01:27:44;98420.97;;;9.01;79.55
10700;BME280;5401;41.986;21.452;2023-03-04T01:30:12;98411.72;;;9.04;79.43
10700;BME280;5401;41.986;21.452;2023-03-04T01:32:41;98379.22;;;8.88;79.79
10700;BME280;5401;41.986;21.452;2023-03-04T01:35:10;98393.56;;;8.87;80.71
10700;BME280;5401;41.986;21.452;2023-03-04T01:37:37;98407.97;;;8.92;79.38
10700;BME280;5401;41.986;21.452;2023-03-04T01:40:06;98398.91;;;8.87;80.31
10700;BME280;5401;41.986;21.452;2023-03-04T01:42:34;98400.97;;;8.85;79.55
10700;BME280;5401;41.986;21.452;2023-03-04T01:45:04;98408.16;;;8.84;79.99
10700;BME280;5401;41.986;21.452;2023-03-04T01:47:33;98406.53;;;8.83;80.28
10700;BME280;5401;41.986;21.452;2023-03-04T01:50:06;98406.53;;;8.83;80.80
10700;BME280;5401;41.986;21.452;2023-03-04T01:52:38;98368.06;;;8.65;79.61
10700;BME280;5401;41.986;21.452;2023-03-04T01:55:14;98408.38;;;8.83;80.16
10700;BME280;5401;41.986;21.452;2023-03-04T01:57:42;98397.47;;;8.78;80.06
10700;BME280;5401;41.986;21.452;2023-03-04T02:00:18;98392.91;;;8.72;80.83
10700;BME280;5401;41.986;21.452;2023-03-04T02:02:47;98400.53;;;8.75;80.40
10700;BME280;5401;41.986;21.452;2023-03-04T02:05:18;98394.75;;;8.65;80.81
10700;BME280;5401;41.986;21.452;2023-03-04T02:07:45;98400.53;;;8.75;80.22
10700;BME280;5401;41.986;21.452;2023-03-04T02:10:13;98396.66;;;8.77;81.41
10700;BME280;5401;41.986;21.452;2023-03-04T02:12:41;98400.94;;;8.78;80.53
10700;BME280;5401;41.986;21.452;2023-03-04T02:15:09;98397.88;;;8.81;81.49
10700;BME280;5401;41.986;21.452;2023-03-04T02:17:37;98387.81;;;8.77;81.57
10700;BME280;5401;41.986;21.452;2023-03-04T02:20:11;98392.13;;;8.84;80.28
10700;BME280;5401;41.986;21.452;2023-03-04T02:22:50;98388.03;;;8.82;81.29
10700;BME280;5401;41.986;21.452;2023-03-04T02:25:23;98389.69;;;8.83;81.48
10700;BME280;5401;41.986;21.452;2023-03-04T02:27:54;98384.75;;;8.86;81.33
10700;BME280;5401;41.986;21.452;2023-03-04T02:30:22;98384.75;;;8.86;80.46
10700;BME280;5401;41.986;21.452;2023-03-04T02:32:51;98379.41;;;8.80;80.89
10700;BME280;5401;41.986;21.452;2023-03-04T02:35:19;98388.47;;;8.85;80.13
10700;BME280;5401;41.986;21.452;2023-03-04T02:37:47;98382.69;;;8.88;81.48
10700;BME280;5401;41.986;21.452;2023-03-04T02:40:20;98374.88;;;8.87;80.50
10700;BME280;5401;41.986;21.452;2023-03-04T02:42:49;98369.13;;;8.77;81.25
10700;BME280;5401;41.986;21.452;2023-03-04T02:45:39;98374.88;;;8.80;80.39
10700;BME280;5401;41.986;21.452;2023-03-04T02:48:08;98360.91;;;8.78;80.97
10700;BME280;5401;41.986;21.452;2023-03-04T02:50:37;98365.47;;;8.90;81.33
10700;BME280;5401;41.986;21.452;2023-03-04T02:53:07;98365.25;;;8.86;80.55
10700;BME280;5401;41.986;21.452;2023-03-04T02:55:34;98362.78;;;8.84;80.39
10700;BME280;5401;41.986;21.452;2023-03-04T02:58:02;98366.88;;;8.87;80.89
10700;BME280;5401;41.986;21.452;2023-03-04T03:00:30;98368.13;;;8.90;80.27
10700;BME280;5401;41.986;21.452;2023-03-04T03:02:59;98359.91;;;8.92;81.21
10700;BME280;5401;41.986;21.452;2023-03-04T03:05:29;98354.59;;;8.92;81.28
10700;BME280;5401;41.986;21.452;2023-03-04T03:07:57;98335.25;;;8.84;80.57
10700;BME280;5401;41.986;21.452;2023-03-04T03:10:25;98361.78;;;8.98;81.00
10700;BME280;5401;41.986;21.452;2023-03-04T03:12:53;98359.75;;;9.06;80.97
10700;BME280;5401;41.986;21.452;2023-03-04T03:15:21;98360.78;;;9.12;80.86
10700;BME280;5401;41.986;21.452;2023-03-04T03:17:48;98359.38;;;9.16;81.41
10700;BME280;5401;41.986;21.452;2023-03-04T03:20:17;98346.41;;;9.13;80.90
10700;BME280;5401;41.986;21.452;2023-03-04T03:22:45;98367.38;;;9.28;81.54
10700;BME280;5401;41.986;21.452;2023-03-04T03:25:13;98362.25;;;9.33;81.01
10700;BME280;5401;41.986;21.452;2023-03-04T03:27:42;98348.47;;;9.30;81.13
10700;BME280;5401;41.986;21.452;2023-03-04T03:30:12;98351.97;;;9.37;80.78
10700;BME280;5401;41.986;21.452;2023-03-04T03:32:40;98354.44;;;9.32;80.23
10700;BME280;5401;41.986;21.452;2023-03-04T03:35:08;98362.25;;;9.33;80.05
10700;BME280;5401;41.986;21.452;2023-03-04T03:37:37;98357.75;;;9.34;80.51
10700;BME280;5401;41.986;21.452;2023-03-04T03:40:05;98344.38;;;9.27;80.35
10700;BME280;5401;41.986;21.452;2023-03-04T03:42:33;98351.56;;;9.40;80.11
10700;BME280;5401;41.986;21.452;2023-03-04T03:45:00;98341.09;;;9.38;80.42
10700;BME280;5401;41.986;21.452;2023-03-04T03:47:28;98335.13;;;9.43;80.61
10700;BME280;5401;41.986;21.452;2023-03-04T03:49:55;98343.56;;;9.46;81.00
10700;BME280;5401;41.986;21.452;2023-03-04T03:52:25;98335.53;;;9.46;80.68
10700;BME280;5401;41.986;21.452;2023-03-04T03:54:54;98337.16;;;9.47;80.51
10700;BME280;5401;41.986;21.452;2023-03-04T03:57:21;98348.91;;;9.53;81.22
10700;BME280;5401;41.986;21.452;2023-03-04T03:59:49;98347.03;;;9.53;80.68
10700;BME280;5401;41.986;21.452;2023-03-04T04:02:16;98340.06;;;9.52;80.03
10700;BME280;5401;41.986;21.452;2023-03-04T04:04:44;98342.72;;;9.59;80.46
10700;BME280;5401;41.986;21.452;2023-03-04T04:07:11;98341.50;;;9.55;81.13
10700;BME280;5401;41.986;21.452;2023-03-04T04:09:39;98335.97;;;9.50;80.59
10700;BME280;5401;41.986;21.452;2023-03-04T04:12:08;98308.84;;;9.33;80.89
10700;BME280;5401;41.986;21.452;2023-03-04T04:14:36;98348.09;;;9.52;80.50
10700;BME280;5401;41.986;21.452;2023-03-04T04:17:03;98340.47;;;9.56;80.56
10700;BME280;5401;41.986;21.452;2023-03-04T04:19:33;98342.31;;;9.55;80.02
10700;BME280;5401;41.986;21.452;2023-03-04T04:22:00;98329.19;;;9.54;79.80
10700;BME280;5401;41.986;21.452;2023-03-04T04:24:28;98337.19;;;9.60;80.48
10700;BME280;5401;41.986;21.452;2023-03-04T04:26:55;98335.31;;;9.60;80.72
10700;BME280;5401;41.986;21.452;2023-03-04T04:29:24;98342.94;;;9.63;80.16
10700;BME280;5401;41.986;21.452;2023-03-04T04:31:52;98343.56;;;9.65;80.77
10700;BME280;5401;41.986;21.452;2023-03-04T04:34:19;98336.75;;;9.69;79.65
10700;BME280;5401;41.986;21.452;2023-03-04T04:36:47;98337.16;;;9.66;79.70
10700;BME280;5401;41.986;21.452;2023-03-04T04:39:14;98345.59;;;9.70;80.48
10700;BME280;5401;41.986;21.452;2023-03-04T04:41:43;98345.38;;;9.71;79.42
10700;BME280;5401;41.986;21.452;2023-03-04T04:44:13;98346.22;;;9.72;80.24
10700;BME280;5401;41.986;21.452;2023-03-04T04:46:45;98338.00;;;9.67;80.56
10700;BME280;5401;41.986;21.452;2023-03-04T04:49:12;98333.66;;;9.72;80.21
10700;BME280;5401;41.986;21.452;2023-03-04T04:51:40;98346.22;;;9.72;79.45
10700;BME280;5401;41.986;21.452;2023-03-04T04:54:07;98351.13;;;9.75;79.62
10700;BME280;5401;41.986;21.452;2023-03-04T04:56:35;98340.44;;;9.75;80.20
10700;BME280;5401;41.986;21.452;2023-03-04T04:59:04;98328.34;;;9.66;79.39
10700;BME280;5401;41.986;21.452;2023-03-04T05:01:32;98335.91;;;9.75;79.52
10700;BME280;5401;41.986;21.452;2023-03-04T05:04:01;98336.53;;;9.77;80.14
10700;BME280;5401;41.986;21.452;2023-03-04T05:06:29;98343.53;;;9.78;80.02
10700;BME280;5401;41.986;21.452;2023-03-04T05:08:56;98344.56;;;9.77;79.21
10700;BME280;5401;41.986;21.452;2023-03-04T05:11:24;98350.75;;;9.78;78.89
10700;BME280;5401;41.986;21.452;2023-03-04T05:13:52;98345.16;;;9.79;79.17
10700;BME280;5401;41.986;21.452;2023-03-04T05:16:19;98343.53;;;9.78;78.83
10700;BME280;5401;41.986;21.452;2023-03-04T05:18:47;98348.88;;;9.78;79.64
10700;BME280;5401;41.986;21.452;2023-03-04T05:21:16;98350.50;;;9.79;79.31
10700;BME280;5401;41.986;21.452;2023-03-04T05:23:43;98355.66;;;9.81;79.75
10700;BME280;5401;41.986;21.452;2023-03-04T05:26:13;98334.69;;;9.71;78.96
10700;BME280;5401;41.986;21.452;2023-03-04T05:28:41;98339.44;;;9.76;79.85
10700;BME280;5401;41.986;21.452;2023-03-04T05:31:08;98351.75;;;9.83;79.18
10700;BME280;5401;41.986;21.452;2023-03-04T05:33:36;98357.50;;;9.87;78.91
10700;BME280;5401;41.986;21.452;2023-03-04T05:36:05;98337.34;;;9.71;79.24
10700;BME280;5401;41.986;21.452;2023-03-04T05:38:34;98348.66;;;9.73;79.02
10700;BME280;5401;41.986;21.452;2023-03-04T05:41:03;98368.84;;;9.82;79.29
10700;BME280;5401;41.986;21.452;2023-03-04T05:43:32;98370.69;;;9.82;79.69
10700;BME280;5401;41.986;21.452;2023-03-04T05:46:01;98331.00;;;9.53;79.21
10700;BME280;5401;41.986;21.452;2023-03-04T05:48:28;98364.09;;;9.78;79.58
10700;BME280;5401;41.986;21.452;2023-03-04T05:50:57;98321.75;;;9.49;78.95
10700;BME280;5401;41.986;21.452;2023-03-04T05:53:26;98367.59;;;9.72;79.49
10700;BME280;5401;41.986;21.452;2023-03-04T05:55:55;98375.41;;;9.73;79.76
10700;BME280;5401;41.986;21.452;2023-03-04T05:58:24;98381.59;;;9.74;80.09
10700;BME280;5401;41.986;21.452;2023-03-04T06:00:52;98394.72;;;9.75;79.01
10700;BME280;5401;41.986;21.452;2023-03-04T06:03:20;98366.59;;;9.54;79.98
10700;BME280;5401;41.986;21.452;2023-03-04T06:05:48;98401.53;;;9.65;80.42
10700;BME280;5401;41.986;21.452;2023-03-04T06:08:16;98383.03;;;9.44;80.02
10700;BME280;5401;41.986;21.452;2023-03-04T06:10:44;98410.34;;;9.53;80.53
10700;BME280;5401;41.986;21.452;2023-03-04T06:13:13;98385.69;;;9.31;80.74
10700;BME280;5401;41.986;21.452;2023-03-04T06:15:40;98411.59;;;9.44;81.16
10700;BME280;5401;41.986;21.452;2023-03-04T06:18:08;98411.78;;;9.42;81.30
10700;BME280;5401;41.986;21.452;2023-03-04T06:20:37;98417.31;;;9.34;81.39
10700;BME280;5401;41.986;21.452;2023-03-04T06:23:04;98427.81;;;9.29;81.93
10700;BME280;5401;41.986;21.452;2023-03-04T06:25:32;98430.69;;;9.28;81.88
10700;BME280;5401;41.986;21.452;2023-03-04T06:27:59;98426.94;;;9.16;81.17
10700;BME280;5401;41.986;21.452;2023-03-04T06:30:28;98418.50;;;9.13;81.14
10700;BME280;5401;41.986;21.452;2023-03-04T06:32:56;98428.34;;;9.06;82.47
10700;BME280;5401;41.986;21.452;2023-03-04T06:35:23;98437.19;;;9.06;82.01
10700;BME280;5401;41.986;21.452;2023-03-04T06:37:51;98440.28;;;9.03;82.48
10700;BME280;5401;41.986;21.452;2023-03-04T06:40:19;98435.91;;;8.89;82.17
10700;BME280;5401;41.986;21.452;2023-03-04T06:42:46;98446.41;;;8.97;82.00
10700;BME280;5401;41.986;21.452;2023-03-04T06:45:14;98447.41;;;8.96;83.00
10700;BME280;5401;41.986;21.452;2023-03-04T06:47:45;98452.97;;;8.95;83.15
10700;BME280;5401;41.986;21.452;2023-03-04T06:50:12;98456.06;;;8.98;83.41
10700;BME280;5401;41.986;21.452;2023-03-04T06:52:40;98455.66;;;9.01;83.54
10700;BME280;5401;41.986;21.452;2023-03-04T06:55:08;98440.63;;;8.94;83.26
10700;BME280;5401;41.986;21.452;2023-03-04T06:57:38;98450.53;;;9.00;82.81
10700;BME280;5401;41.986;21.452;2023-03-04T07:00:06;98428.28;;;8.87;82.79
10700;BME280;5401;41.986;21.452;2023-03-04T07:02:35;98464.75;;;9.13;83.13
10700;BME280;5401;41.986;21.452;2023-03-04T07:05:05;98405.28;;;8.79;83.00
10700;BME280;5401;41.986;21.452;2023-03-04T07:07:32;98469.47;;;9.18;83.67
10700;BME280;5401;41.986;21.452;2023-03-04T07:10:00;98447.59;;;8.88;83.52
10700;BME280;5401;41.986;21.452;2023-03-04T07:12:28;98479.88;;;9.00;83.97
10700;BME280;5401;41.986;21.452;2023-03-04T07:14:55;98482.56;;;9.00;84.38
10700;BME280;5401;41.986;21.452;2023-03-04T07:17:23;98468.16;;;8.94;84.38
10700;BME280;5401;41.986;21.452;2023-03-04T07:19:51;98480.50;;;8.95;83.57
10700;BME280;5401;41.986;21.452;2023-03-04T07:22:20;98479.69;;;9.01;83.62
10700;BME280;5401;41.986;21.452;2023-03-04T07:24:47;98488.97;;;9.05;84.93
10700;BME280;5401;41.986;21.452;2023-03-04T07:27:16;98482.09;;;8.84;83.72
10700;BME280;5401;41.986;21.452;2023-03-04T07:29:43;98495.59;;;8.76;84.72
10700;BME280;5401;41.986;21.452;2023-03-04T07:32:11;98476.28;;;8.74;85.14
10700;BME280;5401;41.986;21.452;2023-03-04T07:34:53;98483.78;;;8.91;84.86
10700;BME280;5401;41.986;21.452;2023-03-04T07:37:22;98480.09;;;8.98;85.94
10700;BME280;5401;41.986;21.452;2023-03-04T07:39:49;98471.72;;;9.08;85.05
10700;BME280;5401;41.986;21.452;2023-03-04T07:42:17;98485.97;;;9.27;85.25
10700;BME280;5401;41.986;21.452;2023-03-04T07:44:45;98480.00;;;9.32;84.76
10700;BME280;5401;41.986;21.452;2023-03-04T07:47:12;98486.41;;;9.37;85.73
10700;BME280;5401;41.986;21.452;2023-03-04T07:49:40;98476.09;;;9.41;85.42
10700;BME280;5401;41.986;21.452;2023-03-04T07:52:07;98450.44;;;9.40;85.13
10700;BME280;5401;41.986;21.452;2023-03-04T07:54:40;98437.06;;;9.40;84.64
10700;BME280;5401;41.986;21.452;2023-03-04T07:57:08;98433.97;;;9.43;85.50
10700;BME280;5401;41.986;21.452;2023-03-04T07:59:35;98470.63;;;9.74;84.46
10700;BME280;5401;41.986;21.452;2023-03-04T08:02:03;98408.72;;;9.45;84.69
10700;BME280;5401;41.986;21.452;2023-03-04T08:04:31;98484.25;;;9.92;84.22
10700;BME280;5401;41.986;21.452;2023-03-04T08:06:59;98468.78;;;9.88;85.03
10700;BME280;5401;41.986;21.452;2023-03-04T08:09:26;98467.16;;;9.93;84.47
10700;BME280;5401;41.986;21.452;2023-03-04T08:11:55;98467.38;;;10.04;84.85
10700;BME280;5401;41.986;21.452;2023-03-04T08:14:23;98444.94;;;9.93;84.40
10700;BME280;5401;41.986;21.452;2023-03-04T08:16:51;98470.22;;;10.16;84.15
10700;BME280;5401;41.986;21.452;2023-03-04T08:19:18;98472.50;;;10.25;84.30
10700;BME280;5401;41.986;21.452;2023-03-04T08:21:46;98476.22;;;10.31;84.61
10700;BME280;5401;41.986;21.452;2023-03-04T08:24:14;98455.84;;;10.23;83.98
10700;BME280;5401;41.986;21.452;2023-03-04T08:26:44;98466.94;;;10.33;84.35
10700;BME280;5401;41.986;21.452;2023-03-04T08:29:17;98456.66;;;10.24;84.64
10700;BME280;5401;41.986;21.452;2023-03-04T08:31:47;98410.81;;;9.95;84.37
10700;BME280;5401;41.986;21.452;2023-03-04T08:34:18;98469.00;;;10.31;84.27
10700;BME280;5401;41.986;21.452;2023-03-04T08:36:47;98471.84;;;10.36;84.08
10700;BME280;5401;41.986;21.452;2023-03-04T08:39:16;98414.91;;;10.03;84.31
10700;BME280;5401;41.986;21.452;2023-03-04T08:41:45;98471.03;;;10.35;84.37
10700;BME280;5401;41.986;21.452;2023-03-04T08:44:15;98453.16;;;10.23;84.25
10700;BME280;5401;41.986;21.452;2023-03-04T08:46:43;98479.28;;;10.34;84.69
10700;BME280;5401;41.986;21.452;2023-03-04T08:49:13;98474.16;;;10.20;84.06
10700;BME280;5401;41.986;21.452;2023-03-04T08:51:41;98442.88;;;10.01;84.54
10700;BME280;5401;41.986;21.452;2023-03-04T08:54:10;98475.41;;;10.30;84.52
10700;BME280;5401;41.986;21.452;2023-03-04T08:56:40;98458.72;;;10.22;85.06
10700;BME280;5401;41.986;21.452;2023-03-04T08:59:08;98449.28;;;10.06;84.42
10700;BME280;5401;41.986;21.452;2023-03-04T09:01:38;98454.41;;;10.14;84.78
10700;BME280;5401;41.986;21.452;2023-03-04T09:04:06;98471.25;;;10.28;84.79
10700;BME280;5401;41.986;21.452;2023-03-04T09:06:33;98466.34;;;10.25;84.72
10700;BME280;5401;41.986;21.452;2023-03-04T09:09:01;98473.31;;;10.26;85.09
10700;BME280;5401;41.986;21.452;2023-03-04T09:11:29;98419.81;;;9.81;84.53
10700;BME280;5401;41.986;21.452;2023-03-04T09:13:57;98427.66;;;9.76;84.87
10700;BME280;5401;41.986;21.452;2023-03-04T09:16:25;98455.63;;;9.80;85.10
10700;BME280;5401;41.986;21.452;2023-03-04T09:18:54;98463.41;;;9.81;84.94
10700;BME280;5401;41.986;21.452;2023-03-04T09:21:22;98459.94;;;9.68;85.18
10700;BME280;5401;41.986;21.452;2023-03-04T09:23:50;98474.53;;;9.65;86.30
10700;BME280;5401;41.986;21.452;2023-03-04T09:26:20;98453.72;;;9.55;85.65
10700;BME280;5401;41.986;21.452;2023-03-04T09:28:50;98400.84;;;9.18;86.84
10700;BME280;5401;41.986;21.452;2023-03-04T09:31:18;98445.31;;;9.58;86.43
10700;BME280;5401;41.986;21.452;2023-03-04T09:33:47;98456.63;;;9.66;86.67
10700;BME280;5401;41.986;21.452;2023-03-04T09:36:17;98452.31;;;9.65;86.48
10700;BME280;5401;41.986;21.452;2023-03-04T09:38:45;98415.50;;;9.48;86.64
10700;BME280;5401;41.986;21.452;2023-03-04T09:41:16;98431.53;;;9.67;86.86
10700;BME280;5401;41.986;21.452;2023-03-04T09:43:46;98448.41;;;9.80;86.32
10700;BME280;5401;41.986;21.452;2023-03-04T09:46:18;98442.66;;;9.70;86.05
10700;BME280;5401;41.986;21.452;2023-03-04T09:48:51;98425.56;;;9.59;86.22
10700;BME280;5401;41.986;21.452;2023-03-04T09:51:35;98446.34;;;9.69;86.15
10700;BME280;5401;41.986;21.452;2023-03-04T09:54:09;98448.41;;;9.87;86.97
10700;BME280;5401;41.986;21.452;2023-03-04T09:56:40;98415.09;;;9.70;86.61
10700;BME280;5401;41.986;21.452;2023-03-04T09:59:16;98398.66;;;9.73;86.64
10700;BME280;5401;41.986;21.452;2023-03-04T10:02:17;98424.81;;;9.90;86.14
10700;BME280;5401;41.986;21.452;2023-03-04T10:04:50;98451.09;;;9.99;86.00
10700;BME280;5401;41.986;21.452;2023-03-04T10:07:26;98421.88;;;9.79;86.28
10700;BME280;5401;41.986;21.452;2023-03-04T10:09:59;98412.22;;;9.65;85.93
10700;BME280;5401;41.986;21.452;2023-03-04T10:12:31;98443.72;;;9.95;86.47
10700;BME280;5401;41.986;21.452;2023-03-04T10:15:02;98447.00;;;10.03;86.54
10700;BME280;5401;41.986;21.452;2023-03-04T10:17:34;98436.31;;;10.03;85.86
10700;BME280;5401;41.986;21.452;2023-03-04T10:20:05;98439.19;;;10.15;86.25
10700;BME280;5401;41.986;21.452;2023-03-04T10:22:40;98422.09;;;10.16;86.07
10700;BME280;5401;41.986;21.452;2023-03-04T10:25:16;98418.00;;;10.07;85.61
10700;BME280;5401;41.986;21.452;2023-03-04T10:27:50;98421.47;;;10.14;85.91
10700;BME280;5401;41.986;21.452;2023-03-04T10:30:25;98412.84;;;10.05;85.85
10700;BME280;5401;41.986;21.452;2023-03-04T10:32:56;98417.97;;;10.20;86.06
10700;BME280;5401;41.986;21.452;2023-03-04T10:35:30;98408.50;;;10.24;85.52
10700;BME280;5401;41.986;21.452;2023-03-04T10:38:03;98403.13;;;10.36;85.63
10700;BME280;5401;41.986;21.452;2023-03-04T10:40:40;98409.06;;;10.45;85.29
10700;BME280;5401;41.986;21.452;2023-03-04T10:43:14;98402.91;;;10.38;84.71
10700;BME280;5401;41.986;21.452;2023-03-04T10:45:42;98364.25;;;10.21;85.44
10700;BME280;5401;41.986;21.452;2023-03-04T10:48:19;98351.31;;;10.18;84.61
10700;BME280;5401;41.986;21.452;2023-03-04T10:50:47;98386.00;;;10.50;85.34
10700;BME280;5401;41.986;21.452;2023-03-04T10:53:29;98359.03;;;10.45;84.97
10700;BME280;5401;41.986;21.452;2023-03-04T10:55:59;98332.28;;;10.45;84.57
10700;BME280;5401;41.986;21.452;2023-03-04T10:58:28;98344.00;;;10.51;84.48
10700;BME280;5401;41.986;21.452;2023-03-04T11:01:01;98353.13;;;10.74;84.33
10700;BME280;5401;41.986;21.452;2023-03-04T11:03:32;98339.59;;;10.69;84.23
10700;BME280;5401;41.986;21.452;2023-03-04T11:06:04;98362.34;;;10.84;84.04
10700;BME280;5401;41.986;21.452;2023-03-04T11:08:34;98373.88;;;10.91;83.98
10700;BME280;5401;41.986;21.452;2023-03-04T11:11:21;98346.28;;;10.84;83.85
10700;BME280;5401;41.986;21.452;2023-03-04T11:13:55;98345.88;;;10.87;83.71
10700;BME280;5401;41.986;21.452;2023-03-04T11:16:26;98353.81;;;11.00;83.62
10700;BME280;5401;41.986;21.452;2023-03-04T11:18:59;98354.38;;;11.08;83.47
10700;BME280;5401;41.986;21.452;2023-03-04T11:21:32;98356.81;;;11.16;83.66
10700;BME280;5401;41.986;21.452;2023-03-04T11:24:10;98318.59;;;11.03;83.11
10700;BME280;5401;41.986;21.452;2023-03-04T11:26:42;98276.28;;;10.81;82.95
10700;BME280;5401;41.986;21.452;2023-03-04T11:29:14;98338.94;;;11.35;82.38
10700;BME280;5401;41.986;21.452;2023-03-04T11:31:47;98331.50;;;11.37;83.01
10700;BME280;5401;41.986;21.452;2023-03-04T11:34:28;98319.97;;;11.36;82.94
10700;BME280;5401;41.986;21.452;2023-03-04T11:37:02;98323.44;;;11.43;82.58
10700;BME280;5401;41.986;21.452;2023-03-04T11:39:36;98327.91;;;11.55;82.38
10700;BME280;5401;41.986;21.452;2023-03-04T11:42:12;98303.44;;;11.45;81.84
10700;BME280;5401;41.986;21.452;2023-03-04T11:44:43;98329.88;;;11.66;81.93
10700;BME280;5401;41.986;21.452;2023-03-04T11:47:24;98331.06;;;11.70;81.46
10700;BME280;5401;41.986;21.452;2023-03-04T11:50:14;98299.84;;;11.58;81.32
10700;BME280;5401;41.986;21.452;2023-03-04T11:53:22;98331.00;;;11.76;81.78
10700;BME280;5401;41.986;21.452;2023-03-04T11:56:05;98304.75;;;11.61;81.19
10700;BME280;5401;41.986;21.452;2023-03-04T11:58:55;98313.81;;;11.84;81.18
10700;BME280;5401;41.986;21.452;2023-03-04T12:01:34;98302.25;;;11.83;80.79
10700;BME280;5401;41.986;21.452;2023-03-04T12:04:15;98300.13;;;11.92;80.97
10700;BME280;5401;41.986;21.452;2023-03-04T12:06:52;98283.31;;;11.78;80.55
10700;BME280;5401;41.986;21.452;2023-03-04T12:09:32;98299.88;;;11.93;81.50
10700;BME280;5401;41.986;21.452;2023-03-04T12:12:22;98262.25;;;11.82;80.89
10700;BME280;5401;41.986;21.452;2023-03-04T12:14:58;98267.34;;;11.90;80.16
10700;BME280;5401;41.986;21.452;2023-03-04T12:17:50;98277.63;;;12.11;79.76
10700;BME280;5401;41.986;21.452;2023-03-04T12:20:39;98272.63;;;12.14;80.54
10700;BME280;5401;41.986;21.452;2023-03-04T12:23:24;98270.69;;;12.21;79.80
10700;BME280;5401;41.986;21.452;2023-03-04T12:25:59;98285.88;;;12.27;80.12
10700;BME280;5401;41.986;21.452;2023-03-04T12:28:38;98239.44;;;12.09;79.12
10700;BME280;5401;41.986;21.452;2023-03-04T12:31:31;98277.34;;;12.47;78.44
10700;BME280;5401;41.986;21.452;2023-03-04T12:37:03;98241.94;;;12.39;78.84
10700;BME280;5401;41.986;21.452;2023-03-04T12:39:38;98266.69;;;12.59;78.61
10700;BME280;5401;41.986;21.452;2023-03-04T12:42:17;98213.47;;;12.38;77.59
10700;BME280;5401;41.986;21.452;2023-03-04T12:44:57;98258.75;;;12.64;78.61
10700;BME280;5401;41.986;21.452;2023-03-04T12:47:37;98254.19;;;12.64;78.17
10700;BME280;5401;41.986;21.452;2023-03-04T12:50:29;98216.06;;;12.45;77.54
10700;BME280;5401;41.986;21.452;2023-03-04T12:53:05;98219.09;;;12.48;77.47
10700;BME280;5401;41.986;21.452;2023-03-04T12:55:37;98247.31;;;12.68;76.80
10700;BME280;5401;41.986;21.452;2023-03-04T12:58:08;98221.25;;;12.57;77.24
10700;BME280;5401;41.986;21.452;2023-03-04T13:00:51;98181.56;;;12.30;77.17
10700;BME280;5401;41.986;21.452;2023-03-04T13:03:27;98193.22;;;12.24;76.97
10700;BME280;5401;41.986;21.452;2023-03-04T13:06:05;98197.31;;;12.27;77.33
10700;BME280;5401;41.986;21.452;2023-03-04T13:08:44;98238.13;;;12.47;77.34
10700;BME280;5401;41.986;21.452;2023-03-04T13:11:44;98231.44;;;12.38;77.60
10700;BME280;5401;41.986;21.452;2023-03-04T13:14:25;98187.13;;;12.00;76.98
10700;BME280;5401;41.986;21.452;2023-03-04T13:16:57;98232.28;;;12.20;77.17
10700;BME280;5401;41.986;21.452;2023-03-04T13:20:09;98214.72;;;12.07;76.92
10700;BME280;5401;41.986;21.452;2023-03-04T13:22:52;98212.25;;;12.05;76.67
10700;BME280;5401;41.986;21.452;2023-03-04T13:25:36;98221.56;;;12.03;77.17
10700;BME280;5401;41.986;21.452;2023-03-04T13:28:19;98158.63;;;11.70;77.14
10700;BME280;5401;41.986;21.452;2023-03-04T13:31:13;98216.56;;;12.06;77.19